Time;durP1;ratioP1;P1;durP2;ratioP2;P2;SDS_P1;SDS_P2;PMS_P1;PMS_P2;Temp;Humidity;BMP_temperature;BMP_pressure;BME280_temperature;BME280_humidity;BME280_pressure;Samples;Min_cycle;Max_cycle;Signal;HPM_P1;HPM_P2
2022/10/04 00:00:49;;;;;;;1.93;1.83;;;20.70;98.20;;;;;;5055123;28;20452;-67
2022/10/04 00:03:22;;;;;;;1.60;1.50;;;20.70;98.20;;;;;;5054771;28;20440;-66
2022/10/04 00:05:53;;;;;;;1.87;1.77;;;20.70;98.10;;;;;;5058446;28;20479;-67
2022/10/04 00:08:28;;;;;;;1.50;1.40;;;20.70;98.20;;;;;;5054965;28;20534;-67
2022/10/04 00:11:07;;;;;;;2.37;2.13;;;20.60;98.20;;;;;;5054832;28;20972;-67
2022/10/04 00:13:36;;;;;;;2.23;1.73;;;20.70;98.30;;;;;;5055137;28;20448;-67
2022/10/04 00:16:03;;;;;;;1.73;1.70;;;20.60;98.10;;;;;;5069381;28;20468;-67
2022/10/04 00:18:37;;;;;;;2.53;1.83;;;20.70;98.30;;;;;;5054803;28;21031;-66
2022/10/04 00:21:07;;;;;;;2.00;1.90;;;20.60;98.10;;;;;;5054726;28;20440;-66
2022/10/04 00:23:47;;;;;;;1.83;1.73;;;20.60;98.20;;;;;;5054468;28;20440;-66
2022/10/04 00:26:56;;;;;;;1.60;1.23;;;20.60;98.60;;;;;;5074452;28;21013;-67
2022/10/04 00:29:31;;;;;;;2.03;1.90;;;20.60;98.30;;;;;;5058937;28;20447;-67
2022/10/04 00:32:27;;;;;;;2.27;2.07;;;20.60;98.30;;;;;;5074490;28;20538;-66
2022/10/04 00:34:54;;;;;;;1.80;1.70;;;20.60;98.30;;;;;;5062700;28;20468;-66
2022/10/04 00:37:24;;;;;;;1.90;1.80;;;20.60;98.30;;;;;;5054396;28;20451;-66
2022/10/04 00:40:09;;;;;;;1.80;1.70;;;20.60;98.30;;;;;;5054235;28;20440;-67
2022/10/04 00:42:51;;;;;;;1.63;1.53;;;20.60;98.30;;;;;;5054259;28;20479;-67
2022/10/04 00:45:30;;;;;;;2.20;2.10;;;20.50;98.30;;;;;;5067998;28;20482;-66
2022/10/04 00:48:27;;;;;;;1.97;1.80;;;20.60;98.30;;;;;;5074264;28;20439;-66
2022/10/04 00:50:59;;;;;;;2.10;1.90;;;20.60;98.30;;;;;;5074383;28;20500;-66
2022/10/04 00:53:41;;;;;;;1.63;1.63;;;20.50;98.30;;;;;;5073798;28;20957;-67
2022/10/04 00:56:11;;;;;;;2.10;2.00;;;20.50;98.30;;;;;;5053939;28;20965;-67
2022/10/04 00:58:46;;;;;;;1.57;1.57;;;20.50;98.40;;;;;;5053941;28;20432;-67
2022/10/04 01:01:13;;;;;;;2.00;1.90;;;20.50;98.40;;;;;;5053866;28;20446;-66
2022/10/04 01:03:44;;;;;;;2.13;1.80;;;20.50;98.50;;;;;;5053489;28;20532;-66
2022/10/04 01:06:12;;;;;;;1.30;1.30;;;20.50;98.40;;;;;;5053837;28;20964;-67
2022/10/04 01:08:47;;;;;;;3.60;1.90;;;20.50;98.40;;;;;;5053684;28;20458;-66
2022/10/04 01:11:17;;;;;;;1.90;1.80;;;20.50;98.80;;;;;;5053713;28;20526;-67
2022/10/04 01:13:50;;;;;;;2.10;1.73;;;20.50;98.50;;;;;;5053336;28;20476;-66
2022/10/04 01:16:18;;;;;;;2.20;2.10;;;20.50;98.50;;;;;;5053645;28;20468;-67
2022/10/04 01:18:46;;;;;;;2.03;1.93;;;20.50;98.50;;;;;;5053564;28;20502;-66
2022/10/04 01:21:25;;;;;;;1.93;1.83;;;20.50;98.60;;;;;;5053510;28;20445;-66
2022/10/04 01:24:17;;;;;;;1.80;1.60;;;20.50;98.50;;;;;;5052931;28;20494;-66
2022/10/04 01:26:45;;;;;;;1.87;1.77;;;20.50;98.50;;;;;;5054409;28;21057;-67
2022/10/04 01:29:15;;;;;;;2.57;2.43;;;20.50;98.50;;;;;;5053333;28;20895;-66
2022/10/04 01:31:44;;;;;;;1.97;1.87;;;20.50;98.50;;;;;;5053389;28;20450;-66
2022/10/04 01:34:14;;;;;;;1.53;1.47;;;20.50;98.50;;;;;;5070398;28;20619;-67
2022/10/04 01:36:41;;;;;;;1.57;1.47;;;20.50;98.50;;;;;;5073264;28;20471;-67
2022/10/04 01:39:10;;;;;;;1.73;1.63;;;20.50;98.50;;;;;;5073158;28;20446;-67
2022/10/04 01:41:45;;;;;;;1.70;1.70;;;20.40;98.40;;;;;;5073171;28;20879;-67
2022/10/04 01:44:20;;;;;;;2.10;1.83;;;20.40;98.50;;;;;;5055459;28;20458;-67
2022/10/04 01:46:50;;;;;;;1.53;1.53;;;20.50;98.50;;;;;;5053057;28;20566;-67
2022/10/04 01:49:20;;;;;;;1.90;1.80;;;20.50;98.50;;;;;;5053030;28;20453;-67
2022/10/04 01:51:54;;;;;;;1.83;1.73;;;20.40;98.50;;;;;;5052990;28;20535;-66
2022/10/04 01:54:32;;;;;;;1.97;1.87;;;20.40;98.40;;;;;;5070543;28;20450;-67
2022/10/04 01:57:03;;;;;;;1.60;1.50;;;20.40;98.40;;;;;;5072830;28;20474;-67
2022/10/04 01:59:35;;;;;;;1.47;1.37;;;20.40;98.50;;;;;;5072778;28;20534;-67
2022/10/04 02:02:06;;;;;;;1.50;1.40;;;20.40;98.50;;;;;;5072898;28;20605;-66
2022/10/04 02:04:37;;;;;;;2.37;2.27;;;20.40;98.90;;;;;;5052727;28;20488;-67
2022/10/04 02:07:12;;;;;;;2.30;1.70;;;20.40;98.50;;;;;;5051951;28;20501;-67
2022/10/04 02:09:44;;;;;;;1.90;1.80;;;20.40;98.50;;;;;;5052619;28;20534;-66
2022/10/04 02:12:15;;;;;;;1.90;1.80;;;20.40;98.60;;;;;;5052478;28;20535;-67
2022/10/04 02:14:51;;;;;;;1.57;1.57;;;20.40;98.50;;;;;;5064350;28;20446;-67
2022/10/04 02:17:21;;;;;;;1.70;1.60;;;20.40;98.90;;;;;;5072529;28;20446;-67
2022/10/04 02:19:49;;;;;;;2.00;1.90;;;20.30;98.50;;;;;;5072443;28;21009;-67
2022/10/04 02:22:16;;;;;;;2.23;2.03;;;20.30;98.50;;;;;;5071560;28;20848;-68
2022/10/04 02:24:48;;;;;;;1.53;1.43;;;20.40;98.60;;;;;;5052074;28;20518;-67
2022/10/04 02:27:15;;;;;;;1.83;1.73;;;20.30;98.50;;;;;;5052265;28;20487;-67
2022/10/04 02:29:43;;;;;;;2.00;1.90;;;20.30;98.50;;;;;;5052214;28;20559;-67
2022/10/04 02:34:56;;;;;;;2.30;2.10;;;20.30;98.50;;;;;;5072161;28;20419;-67
2022/10/04 02:37:24;;;;;;;2.27;2.10;;;20.30;98.50;;;;;;5071971;28;20542;-66
2022/10/04 02:39:58;;;;;;;1.70;1.60;;;20.30;98.50;;;;;;5071948;28;20496;-67
2022/10/04 02:42:38;;;;;;;1.67;1.57;;;20.30;98.50;;;;;;5056330;28;20461;-66
2022/10/04 02:45:12;;;;;;;1.93;1.77;;;20.30;98.50;;;;;;5051690;28;20492;-67
2022/10/04 02:47:44;;;;;;;1.80;1.70;;;20.30;98.50;;;;;;5052020;28;20442;-67
2022/10/04 02:50:26;;;;;;;1.57;1.57;;;20.30;98.50;;;;;;5051950;28;20551;-67
2022/10/04 02:52:58;;;;;;;1.90;1.80;;;20.30;98.90;;;;;;5070297;28;20456;-67
2022/10/04 02:55:29;;;;;;;1.60;1.60;;;20.30;98.50;;;;;;5071605;28;20470;-68
2022/10/04 02:57:58;;;;;;;1.70;1.60;;;20.30;98.60;;;;;;5071897;28;20450;-67
2022/10/04 03:00:27;;;;;;;1.50;1.40;;;20.30;98.50;;;;;;5071694;28;20530;-67
2022/10/04 03:03:19;;;;;;;1.90;1.80;;;20.30;98.90;;;;;;5055010;28;20480;-68
2022/10/04 03:05:56;;;;;;;1.70;1.60;;;20.30;98.60;;;;;;5071548;28;20858;-67
2022/10/04 03:08:23;;;;;;;1.70;1.60;;;20.20;98.50;;;;;;5071621;28;20886;-67
2022/10/04 03:10:51;;;;;;;2.70;2.50;;;20.20;98.50;;;;;;5070084;28;20943;-67
2022/10/04 03:13:20;;;;;;;1.53;1.53;;;20.20;98.50;;;;;;5051400;28;21031;-66
2022/10/04 03:15:48;;;;;;;1.60;1.50;;;20.20;98.60;;;;;;5051442;28;20464;-67
2022/10/04 03:18:16;;;;;;;1.73;1.63;;;20.20;98.60;;;;;;5051411;28;20444;-67
2022/10/04 03:20:43;;;;;;;1.30;1.30;;;20.20;98.60;;;;;;5065223;28;20509;-67
2022/10/04 03:23:13;;;;;;;1.80;1.53;;;20.20;98.70;;;;;;5071291;28;20449;-67
2022/10/04 03:25:48;;;;;;;1.57;1.43;;;20.20;98.60;;;;;;5071329;28;20570;-68
2022/10/04 03:28:17;;;;;;;1.97;1.87;;;20.20;98.60;;;;;;5071511;28;20557;-67
2022/10/04 03:30:45;;;;;;;1.80;1.70;;;20.20;98.60;;;;;;5057346;28;20908;-67
2022/10/04 03:33:21;;;;;;;1.80;1.70;;;20.20;98.60;;;;;;5051198;28;20879;-68
2022/10/04 03:35:52;;;;;;;1.83;1.73;;;20.20;98.70;;;;;;5051199;28;20517;-67
2022/10/04 03:38:21;;;;;;;1.60;1.50;;;20.10;98.60;;;;;;5058651;28;20458;-67
2022/10/04 03:40:52;;;;;;;2.83;1.80;;;20.10;98.70;;;;;;5071434;28;20467;-67
2022/10/04 03:43:24;;;;;;;2.27;1.87;;;20.10;98.60;;;;;;5071159;28;20460;-67
2022/10/04 03:45:52;;;;;;;1.87;1.77;;;20.10;98.70;;;;;;5089099;22;20492;-64
2022/10/04 03:48:30;;;;;;;1.93;1.83;;;20.10;98.60;;;;;;5067370;28;20453;-66
2022/10/04 03:50:58;;;;;;;1.90;1.80;;;20.10;98.70;;;;;;5071255;28;20447;-66
2022/10/04 03:53:31;;;;;;;1.97;1.87;;;20.10;98.70;;;;;;5071078;28;20441;-66
2022/10/04 03:55:59;;;;;;;1.83;1.73;;;20.10;98.70;;;;;;5071244;28;20499;-65
2022/10/04 03:58:30;;;;;;;1.73;1.73;;;20.10;98.70;;;;;;5062112;28;20835;-66
2022/10/04 04:01:05;;;;;;;1.13;1.13;;;20.10;98.80;;;;;;5051119;28;20448;-65
2022/10/04 04:03:41;;;;;;;1.60;1.50;;;20.10;98.90;;;;;;5050866;28;20440;-65
2022/10/04 04:06:15;;;;;;;1.43;1.43;;;20.10;99.00;;;;;;5050920;28;20587;-65
2022/10/04 04:08:44;;;;;;;2.07;1.97;;;20.10;99.00;;;;;;5041124;28;20818;-65
2022/10/04 04:11:18;;;;;;;1.90;1.80;;;20.10;99.00;;;;;;5031253;28;20928;-64
2022/10/04 04:13:51;;;;;;;1.53;1.47;;;20.10;99.40;;;;;;5031997;28;20489;-69
2022/10/04 04:16:20;;;;;;;1.83;1.73;;;20.10;99.30;;;;;;5030035;28;20461;-67
2022/10/04 04:18:49;;;;;;;2.03;1.93;;;20.10;99.60;;;;;;5031335;28;20533;-66
2022/10/04 04:21:19;;;;;;;2.40;1.70;;;20.20;99.80;;;;;;5031188;28;20544;-67
2022/10/04 04:23:50;;;;;;;2.60;2.40;;;20.10;99.90;;;;;;5032565;28;20445;-68
2022/10/04 04:26:26;;;;;;;1.63;1.53;;;20.10;99.90;;;;;;5032368;28;20556;-65
2022/10/04 04:28:58;;;;;;;1.90;1.80;;;20.10;99.90;;;;;;5032573;28;20805;-66
2022/10/04 04:31:28;;;;;;;4.20;2.60;;;20.10;99.90;;;;;;5040763;28;20483;-67
2022/10/04 04:33:59;;;;;;;3.57;2.93;;;20.10;99.90;;;;;;5037434;28;20483;-67
2022/10/04 04:36:27;;;;;;;9.07;3.67;;;20.10;99.90;;;;;;5035521;28;20465;-63
2022/10/04 17:30:18;;;;;;;1.60;1.50;;;20.80;99.90;;;;;;5090100;27;20576;-67
2022/10/04 17:33:14;;;;;;;2.13;1.93;;;20.90;99.90;;;;;;5089297;28;20431;-66
2022/10/04 17:35:59;;;;;;;4.20;3.30;;;21.00;99.90;;;;;;5081459;28;20517;-67
2022/10/04 17:57:44;;;;;;;2.77;2.53;;;21.50;99.90;;;;;;5120605;27;20440;-68
2022/10/04 18:00:13;;;;;;;2.87;2.17;;;21.60;99.90;;;;;;5130408;27;20433;-71
2022/10/04 18:03:04;;;;;;;3.20;1.87;;;21.60;99.90;;;;;;5130437;27;20914;-70
2022/10/04 18:05:43;;;;;;;2.63;2.43;;;21.70;99.90;;;;;;5131784;27;20463;-68
2022/10/04 18:08:16;;;;;;;2.43;2.03;;;21.80;99.90;;;;;;5142357;27;20781;-66
2022/10/04 18:10:50;;;;;;;1.90;1.80;;;21.80;99.90;;;;;;5151072;27;20427;-65
2022/10/04 18:13:25;;;;;;;2.33;1.90;;;21.90;99.90;;;;;;5151029;27;20475;-66
2022/10/04 18:15:58;;;;;;;2.30;2.20;;;21.90;99.90;;;;;;5142810;27;20482;-65
2022/10/04 18:18:29;;;;;;;2.20;2.00;;;21.90;99.90;;;;;;5130752;27;20863;-66
2022/10/04 18:21:06;;;;;;;1.80;1.70;;;21.90;99.90;;;;;;5130557;27;20437;-67
2022/10/04 18:23:38;;;;;;;2.77;1.63;;;22.00;99.90;;;;;;5131723;27;20441;-68
2022/10/04 18:26:11;;;;;;;3.30;1.77;;;22.00;99.90;;;;;;5151629;27;20500;-71
2022/10/04 18:28:38;;;;;;;1.93;1.73;;;22.00;99.90;;;;;;5152704;27;20448;-67
2022/10/04 18:31:32;;;;;;;2.37;1.60;;;22.00;99.90;;;;;;5153348;27;20522;-67
2022/10/04 18:34:15;;;;;;;1.80;1.37;;;22.00;99.90;;;;;;5149167;27;21084;-65
2022/10/04 18:36:56;;;;;;;1.53;1.53;;;22.00;99.90;;;;;;5136909;27;21958;-67
2022/10/04 18:39:23;;;;;;;1.93;1.83;;;21.90;99.90;;;;;;5129966;27;20440;-66
2022/10/04 18:42:22;;;;;;;2.77;2.57;;;21.90;99.90;;;;;;5129447;27;20529;-67
2022/10/04 18:44:58;;;;;;;2.10;2.00;;;21.90;99.90;;;;;;5133037;27;20443;-68
2022/10/04 18:47:32;;;;;;;2.57;2.47;;;21.90;99.90;;;;;;5150041;27;20459;-65
2022/10/04 18:50:02;;;;;;;2.10;2.00;;;21.80;99.90;;;;;;5150337;27;20508;-70
2022/10/04 18:52:49;;;;;;;2.80;2.60;;;21.90;99.90;;;;;;5150012;27;20444;-71
2022/10/04 18:55:26;;;;;;;2.43;2.00;;;21.90;99.80;;;;;;5148378;27;20442;-70
2022/10/04 19:03:48;;;;;;;2.47;2.27;;;21.90;99.90;;;;;;5148876;27;20476;-72
2022/10/04 19:06:21;;;;;;;2.30;2.20;;;21.90;99.80;;;;;;5124355;27;20540;-71
2022/10/04 19:08:56;;;;;;;2.60;2.50;;;21.90;99.60;;;;;;5116548;28;20508;-70
2022/10/04 19:11:28;;;;;;;3.40;2.37;;;21.80;99.50;;;;;;5116129;28;20468;-70
2022/10/04 19:14:02;;;;;;;2.60;2.40;;;21.90;99.40;;;;;;5119093;27;20948;-69
2022/10/04 19:16:40;;;;;;;2.40;2.30;;;21.90;99.10;;;;;;5135876;27;20552;-64
2022/10/04 19:19:40;;;;;;;1.90;1.87;;;21.90;99.00;;;;;;5135848;27;20479;-70
2022/10/04 19:22:18;;;;;;;2.23;2.13;;;21.90;98.90;;;;;;5052795;28;20432;-70
2022/10/04 19:25:13;;;;;;;2.80;2.60;;;21.80;98.80;;;;;;5114015;27;20471;-67
2022/10/04 19:27:45;;;;;;;2.40;2.20;;;21.80;98.80;;;;;;5108946;28;20450;-63
2022/10/04 19:30:20;;;;;;;2.40;2.30;;;21.80;98.70;;;;;;5115960;28;20782;-66
2022/10/04 19:33:02;;;;;;;2.43;2.33;;;21.80;98.70;;;;;;5123551;27;20476;-65
2022/10/04 19:35:49;;;;;;;3.27;3.07;;;21.80;98.60;;;;;;5136706;27;20536;-66
2022/10/04 19:38:43;;;;;;;2.33;2.23;;;21.80;98.60;;;;;;5136741;27;20443;-67
2022/10/04 19:41:20;;;;;;;2.60;2.50;;;21.70;98.60;;;;;;5137511;27;20455;-70
2022/10/04 19:43:52;;;;;;;2.70;2.40;;;21.70;98.60;;;;;;5123192;27;20433;-67
2022/10/04 19:46:33;;;;;;;2.87;2.53;;;21.70;98.60;;;;;;5122787;28;20458;-67
2022/10/04 19:49:02;;;;;;;2.00;1.90;;;21.80;98.40;;;;;;5130786;28;20444;-67
2022/10/04 19:51:36;;;;;;;2.57;2.47;;;21.80;98.30;;;;;;5131125;28;20468;-66
2022/10/04 19:54:08;;;;;;;3.47;2.40;;;21.70;98.20;;;;;;5150334;27;20496;-66
2022/10/04 19:56:42;;;;;;;2.53;2.37;;;21.80;98.30;;;;;;5152559;27;20491;-71
2022/10/04 19:59:17;;;;;;;2.93;2.73;;;21.80;98.00;;;;;;5147390;27;20528;-67
2022/10/04 20:01:45;;;;;;;2.70;2.43;;;21.70;98.20;;;;;;5150483;27;20432;-67
2022/10/04 20:07:01;;;;;;;2.80;2.60;;;21.70;97.90;;;;;;5114146;28;20521;-66
2022/10/04 20:09:34;;;;;;;2.63;2.53;;;21.70;97.90;;;;;;5114131;28;20980;-68
2022/10/04 20:12:01;;;;;;;2.47;2.33;;;21.70;98.00;;;;;;5131009;27;20457;-69
2022/10/04 20:15:13;;;;;;;2.73;2.63;;;21.70;97.90;;;;;;5134241;27;20472;-69
2022/10/04 20:17:42;;;;;;;2.57;2.47;;;21.70;97.90;;;;;;5133520;27;20440;-67
2022/10/04 20:20:13;;;;;;;3.20;3.03;;;21.70;97.90;;;;;;5133230;27;20436;-72
2022/10/04 20:22:56;;;;;;;2.80;2.70;;;21.70;97.80;;;;;;5119065;27;20527;-69
